createdAt,value
2022-11-19T00:01:34.351Z,5.87
2022-11-19T00:04:02.122Z,5.85
2022-11-19T00:06:31.190Z,5.84
2022-11-19T00:08:58.805Z,5.86
2022-11-19T00:11:42.074Z,5.82
2022-11-19T00:14:10.715Z,5.77
2022-11-19T00:16:38.406Z,5.74
2022-11-19T00:19:06.324Z,5.73
2022-11-19T00:21:35.474Z,5.73
2022-11-19T00:24:03.171Z,5.72
2022-11-19T00:26:30.948Z,5.65
2022-11-19T00:28:58.741Z,5.66
2022-11-19T00:31:26.394Z,5.64
2022-11-19T00:33:55.107Z,5.68
2022-11-19T00:36:23.841Z,5.70
2022-11-19T00:38:52.930Z,5.66
2022-11-19T00:41:20.646Z,5.66
2022-11-19T00:43:48.742Z,5.58
2022-11-19T00:46:17.972Z,5.57
2022-11-19T00:48:45.759Z,5.56
2022-11-19T00:51:14.262Z,5.56
2022-11-19T00:53:42.176Z,5.56
2022-11-19T00:56:12.932Z,5.51
2022-11-19T00:58:41.025Z,5.53
2022-11-19T01:01:09.788Z,5.53
2022-11-19T01:03:38.366Z,5.55
2022-11-19T01:06:06.838Z,5.52
2022-11-19T01:08:34.535Z,5.48
2022-11-19T01:11:05.872Z,5.49
2022-11-19T01:13:36.059Z,5.51
2022-11-19T01:16:05.514Z,5.38
2022-11-19T01:18:33.553Z,5.33
2022-11-19T01:21:01.599Z,5.31
2022-11-19T01:23:29.607Z,5.34
2022-11-19T01:25:57.401Z,5.32
2022-11-19T01:28:25.484Z,5.34
2022-11-19T01:30:54.910Z,5.36
2022-11-19T01:33:23.463Z,5.32
2022-11-19T01:35:58.391Z,5.30
2022-11-19T01:38:26.097Z,5.29
2022-11-19T01:40:53.856Z,5.29
2022-11-19T01:43:21.568Z,5.26
2022-11-19T01:45:52.712Z,5.26
2022-11-19T01:48:24.399Z,5.29
2022-11-19T01:50:54.230Z,5.30
2022-11-19T01:53:23.717Z,5.32
2022-11-19T01:55:51.917Z,5.30
2022-11-19T01:58:22.619Z,5.30
2022-11-19T02:00:50.293Z,5.27
2022-11-19T02:03:19.852Z,5.26
2022-11-19T02:05:49.269Z,5.22
2022-11-19T02:08:39.712Z,5.23
2022-11-19T02:11:32.134Z,5.24
2022-11-19T02:14:10.388Z,5.20
2022-11-19T02:16:43.271Z,5.18
2022-11-19T02:19:18.213Z,5.17
2022-11-19T02:21:54.755Z,5.21
2022-11-19T02:24:41.984Z,5.18
2022-11-19T02:27:44.863Z,5.11
2022-11-19T02:30:16.500Z,5.17
2022-11-19T02:32:58.808Z,5.24
2022-11-19T02:35:36.296Z,5.23
2022-11-19T02:38:06.513Z,5.19
2022-11-19T02:40:38.172Z,5.17
2022-11-19T02:43:15.922Z,5.15
2022-11-19T02:45:47.756Z,5.15
2022-11-19T02:48:17.692Z,5.17
2022-11-19T02:50:47.480Z,5.12
2022-11-19T02:53:15.181Z,5.07
2022-11-19T02:56:03.402Z,5.08
2022-11-19T02:58:50.296Z,5.10
2022-11-19T03:01:37.325Z,5.08
2022-11-19T03:04:23.109Z,5.05
2022-11-19T03:06:50.971Z,5.05
2022-11-19T03:09:19.353Z,5.02
2022-11-19T03:11:49.002Z,5.00
2022-11-19T03:14:37.220Z,5.00
2022-11-19T03:17:09.348Z,4.93
2022-11-19T03:19:38.860Z,4.86
2022-11-19T03:22:11.576Z,4.97
2022-11-19T03:24:43.398Z,4.98
2022-11-19T03:27:13.739Z,4.96
2022-11-19T03:29:44.311Z,4.94
2022-11-19T03:32:16.132Z,4.88
2022-11-19T03:34:45.382Z,4.86
2022-11-19T03:37:15.140Z,4.86
2022-11-19T03:39:44.197Z,4.81
2022-11-19T03:42:14.133Z,4.74
2022-11-19T03:44:44.877Z,4.74
2022-11-19T03:47:18.172Z,4.76
2022-11-19T03:49:49.610Z,4.78
2022-11-19T03:52:19.541Z,4.78
2022-11-19T03:54:47.354Z,4.76
2022-11-19T03:57:21.705Z,4.74
2022-11-19T03:59:49.466Z,4.77
2022-11-19T04:02:19.191Z,4.75
2022-11-19T04:04:47.280Z,4.67
2022-11-19T04:07:17.097Z,4.64
2022-11-19T04:09:44.769Z,4.61
2022-11-19T04:12:17.171Z,4.49
2022-11-19T04:14:44.992Z,4.52
2022-11-19T04:17:12.638Z,4.51
2022-11-19T04:19:41.694Z,4.52
2022-11-19T04:22:09.531Z,4.51
2022-11-19T04:24:37.350Z,4.50
2022-11-19T04:27:05.290Z,4.50
2022-11-19T04:29:33.001Z,4.54
2022-11-19T04:32:00.747Z,4.58
2022-11-19T04:34:28.450Z,4.58
2022-11-19T04:36:57.518Z,4.55
2022-11-19T04:39:25.231Z,4.55
2022-11-19T04:41:52.964Z,4.54
2022-11-19T04:44:20.683Z,4.50
2022-11-19T04:46:48.382Z,4.36
2022-11-19T04:49:16.496Z,4.38
2022-11-19T04:51:44.396Z,4.38
2022-11-19T04:54:13.581Z,4.38
2022-11-19T04:56:41.217Z,4.33
2022-11-19T04:59:08.935Z,4.32
2022-11-19T05:01:36.786Z,4.30
2022-11-19T05:04:04.639Z,4.25
2022-11-19T05:06:33.365Z,4.18
2022-11-19T05:09:01.024Z,4.19
2022-11-19T05:11:30.100Z,4.18
2022-11-19T05:13:57.884Z,4.18
2022-11-19T05:16:25.639Z,4.12
2022-11-19T05:18:53.296Z,4.01
2022-11-19T05:21:20.940Z,3.96
2022-11-19T05:23:48.631Z,3.95
2022-11-19T05:26:16.312Z,3.94
2022-11-19T05:28:45.955Z,3.92
2022-11-19T05:31:13.615Z,3.52
2022-11-19T05:33:41.338Z,3.30
2022-11-19T05:36:09.460Z,3.22
2022-11-19T05:38:37.467Z,3.09
2022-11-19T05:41:05.364Z,2.99
2022-11-19T05:43:33.091Z,2.94
2022-11-19T05:46:02.838Z,2.89
2022-11-19T05:48:31.123Z,2.84
2022-11-19T05:50:59.008Z,2.77
2022-11-19T05:53:27.444Z,2.72
2022-11-19T05:55:55.196Z,2.66
2022-11-19T05:58:22.887Z,2.61
2022-11-19T06:00:55.421Z,2.56
2022-11-19T06:03:24.488Z,2.55
2022-11-19T06:05:52.554Z,2.48
2022-11-19T06:08:20.366Z,2.43
2022-11-19T06:10:50.809Z,2.41
2022-11-19T06:13:18.595Z,2.38
2022-11-19T06:15:46.381Z,2.38
2022-11-19T06:18:14.068Z,2.37
2022-11-19T06:20:43.088Z,2.35
2022-11-19T06:23:10.804Z,2.34
2022-11-19T06:25:38.491Z,2.31
2022-11-19T06:28:06.473Z,2.29
2022-11-19T06:30:34.127Z,2.21
2022-11-19T06:33:01.818Z,2.25
2022-11-19T06:35:29.468Z,2.21
2022-11-19T06:37:58.649Z,2.21
2022-11-19T06:40:26.919Z,2.16
2022-11-19T06:42:54.636Z,2.18
2022-11-19T06:45:22.326Z,2.18
2022-11-19T06:47:50.136Z,2.20
2022-11-19T06:50:18.280Z,2.18
2022-11-19T06:52:45.923Z,2.13
2022-11-19T06:55:15.092Z,2.14
2022-11-19T06:57:42.749Z,2.09
2022-11-19T07:00:12.148Z,2.04
2022-11-19T07:02:40.976Z,2.04
2022-11-19T07:05:09.526Z,1.99
2022-11-19T07:07:37.318Z,1.97
2022-11-19T07:10:05.548Z,1.94
2022-11-19T07:12:35.090Z,1.96
2022-11-19T07:15:04.635Z,1.93
2022-11-19T07:17:32.574Z,1.95
2022-11-19T07:20:00.387Z,1.94
2022-11-19T07:22:28.288Z,1.90
2022-11-19T07:24:56.017Z,1.88
2022-11-19T07:27:23.752Z,1.85
2022-11-19T07:29:52.848Z,1.84
2022-11-19T07:32:20.604Z,1.87
2022-11-19T07:34:48.215Z,1.89
2022-11-19T07:37:15.907Z,1.88
2022-11-19T07:39:43.600Z,1.87
2022-11-19T07:42:28.911Z,1.86
2022-11-19T07:44:57.980Z,1.82
2022-11-19T07:47:25.600Z,1.85
2022-11-19T07:49:54.222Z,1.86
2022-11-19T07:52:22.531Z,1.84
2022-11-19T07:54:50.217Z,1.84
2022-11-19T07:57:17.969Z,1.83
2022-11-19T07:59:45.624Z,1.81
2022-11-19T08:02:15.176Z,1.82
2022-11-19T08:04:43.189Z,1.82
2022-11-19T08:07:10.890Z,1.87
2022-11-19T08:09:38.525Z,1.90
2022-11-19T08:12:06.854Z,1.93
2022-11-19T08:14:34.598Z,1.97
2022-11-19T08:17:20.072Z,1.99
2022-11-19T08:19:49.193Z,1.96
2022-11-19T08:22:16.818Z,1.97
2022-11-19T08:24:45.502Z,1.99
2022-11-19T08:27:13.235Z,2.00
2022-11-19T08:29:40.955Z,1.99
2022-11-19T08:32:08.596Z,1.97
2022-11-19T08:34:36.641Z,1.98
2022-11-19T08:37:05.658Z,2.03
2022-11-19T08:39:33.317Z,2.03
2022-11-19T08:42:18.372Z,2.03
2022-11-19T08:44:46.038Z,2.03
2022-11-19T08:47:15.509Z,2.08
2022-11-19T08:49:43.193Z,2.14
2022-11-19T08:52:12.296Z,2.21
2022-11-19T08:54:39.982Z,2.25
2022-11-19T08:57:07.770Z,2.23
2022-11-19T08:59:35.972Z,2.25
2022-11-19T09:02:03.659Z,2.23
2022-11-19T09:04:31.396Z,2.28
2022-11-19T09:06:59.312Z,2.29
2022-11-19T09:09:28.384Z,2.33
2022-11-19T09:11:56.396Z,2.35
2022-11-19T09:14:24.131Z,2.36
2022-11-19T09:16:51.834Z,2.43
2022-11-19T09:19:19.567Z,2.45
2022-11-19T09:21:47.232Z,2.49
2022-11-19T09:24:14.858Z,2.54
2022-11-19T09:26:47.612Z,2.57
2022-11-19T09:29:17.932Z,2.61
2022-11-19T09:31:45.569Z,2.66
2022-11-19T09:34:13.326Z,2.72
2022-11-19T09:36:41.072Z,2.74
2022-11-19T09:39:08.767Z,2.78
2022-11-19T09:41:45.448Z,2.80
2022-11-19T09:44:20.884Z,2.87
2022-11-19T09:46:54.408Z,2.89
2022-11-19T09:49:26.402Z,2.86
2022-11-19T09:51:57.474Z,2.90
2022-11-19T09:54:25.401Z,3.00
2022-11-19T09:56:59.197Z,3.07
2022-11-19T09:59:34.623Z,3.12
2022-11-19T10:02:02.327Z,3.17
2022-11-19T10:04:33.409Z,3.26
2022-11-19T10:07:07.860Z,3.27
2022-11-19T10:09:48.911Z,3.45
2022-11-19T10:12:29.999Z,3.52
2022-11-19T10:15:10.283Z,3.57
2022-11-19T10:17:47.695Z,3.60
2022-11-19T10:20:28.446Z,3.66
2022-11-19T10:22:58.695Z,3.67
2022-11-19T10:25:29.626Z,3.68
2022-11-19T10:28:07.326Z,3.74
2022-11-19T10:30:35.351Z,3.75
2022-11-19T10:33:05.864Z,3.78
2022-11-19T10:35:37.255Z,3.82
2022-11-19T10:38:08.144Z,3.83
2022-11-19T10:40:39.593Z,3.90
2022-11-19T10:43:22.065Z,3.94
2022-11-19T10:45:51.006Z,3.97
2022-11-19T10:48:22.419Z,3.98
2022-11-19T10:50:50.726Z,4.03
2022-11-19T10:53:21.326Z,3.98
2022-11-19T10:55:54.801Z,4.08
2022-11-19T10:58:27.091Z,4.13
2022-11-19T11:00:55.615Z,4.17
2022-11-19T11:03:25.869Z,4.21
2022-11-19T11:05:58.959Z,4.28
2022-11-19T11:08:26.962Z,4.26
2022-11-19T11:10:54.888Z,4.28
2022-11-19T11:14:05.489Z,4.29
2022-11-19T11:16:44.333Z,4.28
2022-11-19T11:19:17.902Z,4.36
2022-11-19T11:21:46.936Z,4.37
2022-11-19T11:24:15.311Z,4.35
2022-11-19T11:26:42.943Z,4.37
2022-11-19T11:32:22.529Z,4.46
2022-11-19T11:34:49.960Z,4.35
2022-11-19T11:37:17.687Z,4.49
2022-11-19T11:39:47.727Z,4.59
2022-11-19T11:42:18.715Z,4.62
2022-11-19T11:44:51.387Z,4.65
2022-11-19T11:47:22.356Z,4.66
2022-11-19T11:49:56.508Z,4.70
2022-11-19T11:52:29.184Z,4.77
2022-11-19T11:54:59.346Z,4.76
2022-11-19T11:57:28.575Z,5.22
2022-11-19T11:59:56.445Z,4.97
2022-11-19T12:02:30.285Z,4.85
2022-11-19T12:05:01.509Z,5.26
2022-11-19T12:07:47.189Z,5.00
2022-11-19T12:10:27.836Z,5.33
2022-11-19T12:13:03.577Z,5.04
2022-11-19T12:15:39.074Z,4.89
2022-11-19T12:18:13.778Z,5.27
2022-11-19T12:20:45.995Z,5.02
2022-11-19T12:23:20.342Z,4.78
2022-11-19T12:25:53.622Z,4.80
2022-11-19T12:28:45.226Z,4.81
2022-11-19T12:31:25.121Z,4.78
2022-11-19T12:34:21.168Z,4.75
2022-11-19T12:36:56.997Z,4.74
2022-11-19T12:39:36.622Z,4.77
2022-11-19T12:42:27.291Z,4.80
2022-11-19T12:44:59.615Z,4.81
2022-11-19T12:47:44.689Z,4.81
2022-11-19T12:50:22.529Z,4.77
2022-11-19T12:53:04.393Z,4.79
2022-11-19T12:55:37.652Z,4.79
2022-11-19T12:58:10.609Z,4.77
2022-11-19T13:00:42.845Z,4.82
2022-11-19T13:03:14.943Z,4.83
2022-11-19T13:05:45.088Z,4.69
2022-11-19T13:08:14.146Z,4.62
2022-11-19T13:10:45.927Z,4.74
2022-11-19T13:13:17.348Z,4.81
2022-11-19T13:15:47.269Z,4.85
2022-11-19T13:18:16.613Z,4.89
2022-11-19T13:20:49.940Z,4.91
2022-11-19T13:23:22.619Z,4.93
2022-11-19T13:25:57.846Z,4.96
2022-11-19T13:28:28.678Z,4.93
2022-11-19T13:30:59.915Z,4.91
2022-11-19T13:33:32.170Z,4.89
2022-11-19T13:36:05.779Z,4.89
2022-11-19T13:38:38.325Z,4.89
2022-11-19T13:41:11.697Z,4.89
2022-11-19T13:43:56.905Z,4.88
2022-11-19T13:46:26.496Z,4.86
2022-11-19T13:48:57.737Z,4.85
2022-11-19T13:51:30.611Z,4.84
2022-11-19T13:54:03.099Z,4.80
2022-11-19T13:56:43.151Z,4.76
2022-11-19T13:59:30.734Z,4.72
2022-11-19T14:02:27.488Z,4.69
2022-11-19T14:05:06.064Z,4.73
2022-11-19T14:07:55.326Z,4.73
2022-11-19T14:10:27.340Z,4.72
2022-11-19T14:13:04.420Z,4.58
2022-11-19T14:15:56.008Z,4.50
2022-11-19T14:18:42.283Z,4.37
2022-11-19T14:21:46.376Z,4.27
2022-11-19T14:24:46.427Z,4.19
2022-11-19T14:27:19.572Z,4.11
2022-11-19T14:29:54.101Z,4.04
2022-11-19T14:32:34.326Z,4.10
2022-11-19T14:35:31.741Z,4.13
2022-11-19T14:38:06.877Z,4.09
2022-11-19T14:40:38.503Z,4.05
2022-11-19T14:43:44.192Z,4.09
2022-11-19T14:46:28.474Z,4.06
2022-11-19T14:49:02.228Z,4.06
2022-11-19T14:51:32.825Z,4.00
2022-11-19T14:54:04.575Z,4.02
2022-11-19T14:56:33.020Z,4.00
2022-11-19T14:59:08.926Z,3.96
2022-11-19T15:01:50.478Z,3.93
2022-11-19T15:04:21.419Z,3.89
2022-11-19T15:06:49.413Z,3.88
2022-11-19T15:10:01.320Z,3.87
2022-11-19T15:12:35.325Z,3.87
2022-11-19T15:15:36.848Z,3.85
2022-11-19T15:18:15.515Z,3.88
2022-11-19T15:20:57.981Z,4.04
2022-11-19T15:25:40.753Z,4.17
2022-11-19T15:28:21.294Z,4.15
2022-11-19T15:31:14.285Z,4.11
2022-11-19T15:33:55.525Z,4.00
2022-11-19T15:36:30.907Z,3.98
2022-11-19T15:39:02.568Z,3.94
2022-11-19T15:41:34.114Z,3.90
2022-11-19T15:44:05.374Z,3.84
2022-11-19T15:46:39.576Z,3.80
2022-11-19T15:49:12.828Z,3.75
2022-11-19T15:51:55.483Z,3.71
2022-11-19T15:54:27.759Z,3.68
2022-11-19T15:56:59.939Z,4.20
2022-11-19T15:59:28.524Z,3.88
2022-11-19T16:02:02.230Z,3.60
2022-11-19T16:04:36.976Z,3.59
2022-11-19T16:07:05.900Z,3.53
2022-11-19T16:09:33.956Z,3.49
2022-11-19T16:15:11.280Z,3.56
2022-11-19T16:17:48.646Z,3.46
2022-11-19T16:20:23.051Z,3.44
2022-11-19T16:22:57.606Z,3.39
2022-11-19T16:25:30.967Z,3.33
2022-11-19T16:28:00.483Z,3.27
2022-11-19T16:30:31.274Z,3.24
2022-11-19T16:33:00.052Z,3.13
2022-11-19T16:35:31.392Z,3.20
2022-11-19T16:38:00.726Z,3.16
2022-11-19T16:40:50.061Z,3.10
2022-11-19T16:43:16.973Z,3.09
2022-11-19T16:45:47.151Z,3.06
2022-11-19T16:48:57.874Z,3.05
2022-11-19T16:51:40.173Z,3.00
2022-11-19T16:54:09.812Z,2.99
2022-11-19T16:56:41.342Z,2.95
2022-11-19T16:59:17.603Z,2.94
2022-11-19T17:01:52.363Z,2.91
2022-11-19T17:04:20.592Z,2.88
2022-11-19T17:06:48.661Z,2.86
2022-11-19T17:09:31.071Z,2.84
2022-11-19T17:12:16.193Z,2.79
2022-11-19T17:14:58.621Z,2.76
2022-11-19T17:17:43.200Z,2.69
2022-11-19T17:21:01.451Z,2.68
2022-11-19T17:23:30.862Z,2.62
2022-11-19T17:26:00.111Z,2.60
2022-11-19T17:28:35.068Z,2.60
2022-11-19T17:31:04.480Z,2.54
2022-11-19T17:33:36.582Z,2.58
2022-11-19T17:36:05.003Z,2.56
2022-11-19T17:38:33.613Z,2.54
2022-11-19T17:41:02.644Z,2.50
2022-11-19T17:43:49.585Z,2.52
2022-11-19T17:46:17.561Z,2.47
2022-11-19T17:48:47.777Z,2.47
2022-11-19T17:51:16.994Z,2.43
2022-11-19T17:53:44.806Z,2.39
2022-11-19T17:56:17.981Z,2.40
2022-11-19T17:58:45.633Z,2.36
2022-11-19T18:01:13.422Z,2.96
2022-11-19T18:03:41.163Z,2.63
2022-11-19T18:06:12.621Z,2.54
2022-11-19T18:08:41.973Z,2.46
2022-11-19T18:11:11.444Z,2.43
2022-11-19T18:13:39.351Z,2.40
2022-11-19T18:16:13.346Z,2.39
2022-11-19T18:18:40.956Z,2.35
2022-11-19T18:21:12.346Z,2.33
2022-11-19T18:23:40.818Z,2.29
2022-11-19T18:26:10.434Z,2.27
2022-11-19T18:28:38.161Z,2.19
2022-11-19T18:31:06.032Z,2.19
2022-11-19T18:33:34.572Z,2.16
2022-11-19T18:36:02.208Z,2.15
2022-11-19T18:38:31.343Z,2.14
2022-11-19T18:40:59.001Z,2.12
2022-11-19T18:43:44.040Z,2.10
2022-11-19T18:46:11.797Z,2.08
2022-11-19T18:48:39.531Z,2.09
2022-11-19T18:51:47.591Z,2.15
2022-11-19T18:54:15.353Z,2.19
2022-11-19T18:56:43.009Z,2.17
2022-11-19T18:59:12.454Z,2.15
2022-11-19T19:01:40.625Z,2.12
2022-11-19T19:04:09.937Z,2.10
2022-11-19T19:06:37.645Z,2.05
2022-11-19T19:09:06.779Z,2.06
2022-11-19T19:11:51.700Z,2.03
2022-11-19T19:14:19.579Z,2.01
2022-11-19T19:16:47.190Z,1.99
2022-11-19T19:19:16.080Z,1.98
2022-11-19T19:21:43.946Z,1.96
2022-11-19T19:24:13.213Z,1.94
2022-11-19T19:26:40.916Z,1.90
2022-11-19T19:29:08.696Z,1.90
2022-11-19T19:31:36.827Z,1.90
2022-11-19T19:34:04.803Z,1.90
2022-11-19T19:36:32.628Z,1.88
2022-11-19T19:39:00.278Z,1.84
2022-11-19T19:41:29.573Z,1.81
2022-11-19T19:43:58.319Z,1.78
2022-11-19T19:46:26.064Z,1.72
2022-11-19T19:48:55.538Z,1.73
2022-11-19T19:51:24.736Z,1.71
2022-11-19T19:53:53.980Z,1.70
2022-11-19T19:56:23.204Z,1.61
2022-11-19T19:58:52.519Z,1.67
2022-11-19T20:01:22.415Z,1.59
2022-11-19T20:03:54.257Z,1.63
2022-11-19T20:06:24.027Z,1.61
2022-11-19T20:08:51.919Z,1.59
2022-11-19T20:11:20.926Z,1.54
2022-11-19T20:13:48.864Z,1.51
2022-11-19T20:16:18.983Z,1.50
2022-11-19T20:18:47.501Z,1.47
2022-11-19T20:21:16.807Z,1.46
2022-11-19T20:23:44.881Z,1.45
2022-11-19T20:26:14.028Z,1.40
2022-11-19T20:28:42.053Z,1.42
2022-11-19T20:31:12.294Z,1.43
2022-11-19T20:33:42.646Z,1.44
2022-11-19T20:36:11.696Z,1.43
2022-11-19T20:38:40.910Z,1.42
2022-11-19T20:41:31.665Z,1.41
2022-11-19T20:44:17.754Z,1.37
2022-11-19T20:46:46.025Z,1.30
2022-11-19T20:49:17.200Z,1.34
2022-11-19T20:51:45.728Z,1.31
2022-11-19T20:54:13.742Z,1.27
2022-11-19T20:56:41.858Z,1.28
2022-11-19T20:59:09.808Z,1.25
2022-11-19T21:01:38.382Z,1.21
2022-11-19T21:04:06.661Z,1.18
2022-11-19T21:06:35.880Z,1.17
2022-11-19T21:09:04.292Z,1.16
2022-11-19T21:11:33.119Z,1.15
2022-11-19T21:14:00.931Z,1.11
2022-11-19T21:16:29.860Z,1.11
2022-11-19T21:18:57.947Z,1.10
2022-11-19T21:21:26.527Z,1.11
2022-11-19T21:23:56.011Z,1.10
2022-11-19T21:26:25.210Z,1.06
2022-11-19T21:28:54.353Z,1.04
2022-11-19T21:31:37.720Z,1.01
2022-11-19T21:34:06.113Z,0.98
2022-11-19T21:36:34.028Z,0.95
2022-11-19T21:39:03.671Z,0.93
2022-11-19T21:41:31.461Z,0.89
2022-11-19T21:43:59.218Z,0.88
2022-11-19T21:46:27.003Z,0.87
2022-11-19T21:48:54.931Z,0.86
2022-11-19T21:51:24.844Z,0.88
2022-11-19T21:53:54.656Z,0.89
2022-11-19T21:56:24.127Z,0.85
2022-11-19T21:58:51.936Z,0.81
2022-11-19T22:01:19.740Z,0.78
2022-11-19T22:03:47.490Z,0.75
2022-11-19T22:06:15.241Z,0.77
2022-11-19T22:08:43.244Z,0.77
2022-11-19T22:11:29.741Z,0.76
2022-11-19T22:14:00.408Z,0.70
2022-11-19T22:16:28.768Z,0.66
2022-11-19T22:18:56.516Z,0.63
2022-11-19T22:21:24.343Z,0.62
2022-11-19T22:23:52.804Z,0.59
2022-11-19T22:26:20.721Z,0.57
2022-11-19T22:28:48.560Z,0.55
2022-11-19T22:31:17.794Z,0.54
2022-11-19T22:33:47.762Z,0.55
2022-11-19T22:36:15.504Z,0.51
2022-11-19T22:38:43.360Z,0.50
2022-11-19T22:41:12.500Z,0.50
2022-11-19T22:43:41.079Z,0.48
2022-11-19T22:46:09.741Z,0.49
2022-11-19T22:48:39.289Z,0.51
2022-11-19T22:51:08.330Z,0.48
2022-11-19T22:53:36.538Z,0.47
2022-11-19T22:56:04.984Z,0.45
2022-11-19T22:58:33.958Z,0.41
2022-11-19T23:02:48.917Z,0.55
2022-11-19T23:05:16.685Z,0.57
2022-11-19T23:07:44.441Z,0.54
2022-11-19T23:10:12.124Z,0.51
2022-11-19T23:12:57.112Z,0.44
2022-11-19T23:15:24.745Z,0.36
2022-11-19T23:17:53.827Z,0.36
2022-11-19T23:20:21.528Z,0.32
2022-11-19T23:22:49.164Z,0.30
2022-11-19T23:25:17.026Z,0.28
2022-11-19T23:27:44.720Z,0.25
2022-11-19T23:30:12.660Z,0.22
2022-11-19T23:32:40.863Z,0.19
2022-11-19T23:35:10.236Z,0.17
2022-11-19T23:37:37.898Z,0.16
2022-11-19T23:40:06.454Z,0.15
2022-11-19T23:42:34.102Z,0.13
2022-11-19T23:45:01.720Z,0.12
2022-11-19T23:47:29.339Z,0.04
2022-11-19T23:49:57.001Z,0.07
2022-11-19T23:52:26.051Z,0.07
2022-11-19T23:54:53.835Z,0.06
2022-11-19T23:57:21.618Z,0.02
2022-11-19T23:59:49.272Z,-0.02
